createdAt,value
2018-05-12T00:00:10.394Z,25.50
2018-05-12T00:02:37.950Z,27.97
2018-05-12T00:05:05.518Z,28.40
2018-05-12T00:07:33.113Z,27.90
2018-05-12T00:10:00.669Z,28.90
2018-05-12T00:12:28.190Z,27.67
2018-05-12T00:14:55.834Z,27.37
2018-05-12T00:17:23.407Z,27.20
2018-05-12T00:19:50.970Z,26.13
2018-05-12T00:22:18.551Z,25.97
2018-05-12T00:24:46.119Z,26.80
2018-05-12T00:27:13.668Z,26.40
2018-05-12T00:29:41.210Z,26.00
2018-05-12T00:32:08.721Z,25.67
2018-05-12T00:34:36.300Z,26.07
2018-05-12T00:37:03.873Z,25.27
2018-05-12T00:39:31.414Z,27.10
2018-05-12T00:41:58.980Z,28.93
2018-05-12T00:44:26.555Z,29.10
2018-05-12T00:46:54.117Z,26.43
2018-05-12T00:49:21.709Z,26.87
2018-05-12T00:51:49.254Z,25.90
2018-05-12T00:54:16.776Z,26.57
2018-05-12T00:56:44.362Z,26.63
2018-05-12T00:59:11.873Z,25.50
2018-05-12T01:01:39.394Z,27.07
2018-05-12T01:04:07.035Z,25.40
2018-05-12T01:06:34.607Z,26.00
2018-05-12T01:09:02.158Z,26.60
2018-05-12T01:11:29.786Z,27.70
2018-05-12T01:13:57.350Z,27.47
2018-05-12T01:16:25.934Z,26.83
2018-05-12T01:18:53.556Z,26.10
2018-05-12T01:21:21.128Z,26.47
2018-05-12T01:23:48.685Z,27.87
2018-05-12T01:26:16.250Z,26.00
2018-05-12T01:28:43.770Z,26.53
2018-05-12T01:31:11.295Z,27.97
2018-05-12T01:33:38.845Z,29.13
2018-05-12T01:36:06.350Z,27.60
2018-05-12T01:38:33.883Z,27.37
2018-05-12T01:41:01.443Z,27.63
2018-05-12T01:43:29.014Z,27.30
2018-05-12T01:45:56.607Z,25.67
2018-05-12T01:48:24.390Z,26.90
2018-05-12T01:50:51.929Z,27.17
2018-05-12T01:53:19.506Z,30.37
2018-05-12T01:55:47.081Z,28.63
2018-05-12T01:58:14.652Z,27.73
2018-05-12T02:00:42.183Z,27.53
2018-05-12T02:03:09.835Z,24.40
2018-05-12T02:05:37.354Z,25.07
2018-05-12T02:08:04.900Z,26.83
2018-05-12T02:10:32.466Z,26.70
2018-05-12T02:13:00.070Z,28.23
2018-05-12T02:15:27.673Z,29.97
2018-05-12T02:17:55.269Z,30.40
2018-05-12T02:20:22.798Z,30.67
2018-05-12T02:22:50.363Z,28.53
2018-05-12T02:25:18.023Z,27.67
2018-05-12T02:27:45.589Z,27.73
2018-05-12T02:30:13.123Z,30.00
2018-05-12T02:32:40.701Z,29.33
2018-05-12T02:35:08.218Z,29.97
2018-05-12T02:37:35.815Z,28.70
2018-05-12T02:40:03.981Z,27.60
2018-05-12T02:42:31.491Z,31.27
2018-05-12T02:44:59.637Z,31.13
2018-05-12T02:47:27.202Z,28.57
2018-05-12T02:49:54.709Z,32.37
2018-05-12T02:52:22.258Z,31.30
2018-05-12T02:54:49.817Z,32.73
2018-05-12T02:57:17.399Z,35.53
2018-05-12T02:59:44.934Z,32.17
2018-05-12T03:02:12.474Z,35.80
2018-05-12T03:04:40.020Z,36.00
2018-05-12T03:07:07.559Z,31.10
2018-05-12T03:09:35.103Z,33.83
2018-05-12T03:12:02.614Z,33.30
2018-05-12T03:14:30.134Z,33.23
2018-05-12T03:16:57.716Z,33.73
2018-05-12T03:19:25.259Z,35.20
2018-05-12T03:21:52.820Z,32.33
2018-05-12T03:24:20.713Z,32.50
2018-05-12T03:26:48.240Z,32.20
2018-05-12T03:29:15.812Z,33.20
2018-05-12T03:31:43.379Z,34.37
2018-05-12T03:34:10.919Z,33.37
2018-05-12T03:36:38.442Z,32.90
2018-05-12T03:39:06.011Z,33.47
2018-05-12T03:41:33.572Z,31.83
2018-05-12T03:44:01.086Z,32.67
2018-05-12T03:46:28.655Z,33.50
2018-05-12T03:48:56.195Z,33.50
2018-05-12T03:51:23.777Z,31.80
2018-05-12T03:53:51.353Z,32.07
2018-05-12T03:56:18.882Z,32.97
2018-05-12T03:58:46.435Z,30.70
2018-05-12T04:01:14.032Z,29.87
2018-05-12T04:03:41.547Z,28.33
2018-05-12T04:06:20.930Z,28.27
2018-05-12T04:09:00.180Z,26.37
2018-05-12T04:11:40.441Z,25.40
2018-05-12T04:14:08.004Z,25.63
2018-05-12T04:16:36.314Z,25.80
2018-05-12T04:19:03.872Z,25.73
2018-05-12T04:21:31.386Z,27.80
2018-05-12T04:23:58.918Z,25.70
2018-05-12T04:26:26.493Z,26.13
2018-05-12T04:28:54.012Z,25.73
2018-05-12T04:31:21.540Z,24.60
2018-05-12T04:33:49.097Z,23.10
2018-05-12T04:36:16.635Z,23.37
2018-05-12T04:38:44.175Z,21.10
2018-05-12T04:41:12.617Z,23.87
2018-05-12T04:43:40.183Z,24.47
2018-05-12T04:46:07.733Z,24.67
2018-05-12T04:48:37.785Z,25.03
2018-05-12T04:51:05.302Z,26.87
2018-05-12T04:53:33.261Z,25.70
2018-05-12T04:56:00.826Z,27.63
2018-05-12T04:58:28.375Z,26.87
2018-05-12T05:00:55.946Z,26.03
2018-05-12T05:03:23.522Z,26.80
2018-05-12T05:05:51.170Z,29.13
2018-05-12T05:08:18.709Z,30.10
2018-05-12T05:10:46.245Z,29.13
2018-05-12T05:13:13.763Z,29.03
2018-05-12T05:15:41.264Z,28.83
2018-05-12T05:18:08.807Z,28.77
2018-05-12T05:20:36.320Z,27.67
2018-05-12T05:23:03.830Z,28.37
2018-05-12T05:25:31.403Z,27.57
2018-05-12T05:27:58.917Z,28.13
2018-05-12T05:30:26.429Z,27.63
2018-05-12T05:32:53.969Z,28.77
2018-05-12T05:35:21.475Z,29.13
2018-05-12T05:37:49.021Z,27.63
2018-05-12T05:40:16.563Z,28.43
2018-05-12T05:42:44.083Z,28.20
2018-05-12T05:45:11.647Z,27.80
2018-05-12T05:47:39.247Z,28.17
2018-05-12T05:50:06.980Z,27.50
2018-05-12T05:52:34.501Z,27.90
2018-05-12T05:55:02.088Z,29.03
2018-05-12T05:57:30.268Z,29.47
2018-05-12T05:59:58.170Z,27.70
2018-05-12T06:02:25.803Z,28.50
2018-05-12T06:04:53.418Z,27.63
2018-05-12T06:07:20.965Z,28.87
2018-05-12T06:09:48.544Z,27.10
2018-05-12T06:12:16.150Z,27.70
2018-05-12T06:14:43.736Z,25.27
2018-05-12T06:17:11.402Z,23.63
2018-05-12T06:19:38.943Z,24.93
2018-05-12T06:22:06.458Z,23.17
2018-05-12T06:24:34.038Z,24.03
2018-05-12T06:27:01.612Z,23.70
2018-05-12T06:29:29.163Z,23.83
2018-05-12T06:31:56.768Z,23.80
2018-05-12T06:34:24.405Z,25.00
2018-05-12T06:36:51.934Z,24.43
2018-05-12T06:39:19.583Z,25.30
2018-05-12T06:41:47.112Z,25.23
2018-05-12T06:44:14.683Z,25.53
2018-05-12T06:46:42.279Z,25.10
2018-05-12T06:49:09.819Z,25.77
2018-05-12T06:51:37.377Z,24.27
2018-05-12T06:54:04.965Z,26.27
2018-05-12T06:56:32.577Z,26.40
2018-05-12T06:59:00.136Z,25.37
2018-05-12T07:01:27.724Z,25.60
2018-05-12T07:03:55.251Z,27.00
2018-05-12T07:06:22.781Z,25.67
2018-05-12T07:08:50.341Z,26.50
2018-05-12T07:11:17.942Z,24.60
2018-05-12T07:13:45.482Z,23.03
2018-05-12T07:16:13.013Z,22.93
2018-05-12T07:18:40.600Z,20.00
2018-05-12T07:21:08.127Z,19.87
2018-05-12T07:23:36.428Z,19.40
2018-05-12T07:26:03.934Z,18.37
2018-05-12T07:28:31.446Z,17.87
2018-05-12T07:30:59.023Z,18.00
2018-05-12T07:33:26.585Z,18.30
2018-05-12T07:35:54.150Z,17.48
2018-05-12T07:38:21.778Z,17.17
2018-05-12T07:40:49.321Z,15.98
2018-05-12T07:43:16.844Z,16.95
2018-05-12T07:45:49.410Z,15.48
2018-05-12T07:48:19.392Z,15.15
2018-05-12T07:50:46.998Z,16.52
2018-05-12T07:53:14.511Z,16.48
2018-05-12T07:55:42.032Z,15.85
2018-05-12T07:58:09.592Z,16.27
2018-05-12T08:00:37.109Z,15.02
2018-05-12T08:03:04.614Z,15.52
2018-05-12T08:05:32.161Z,14.13
2018-05-12T08:07:59.687Z,14.20
2018-05-12T08:10:27.215Z,14.55
2018-05-12T08:12:54.843Z,14.55
2018-05-12T08:15:22.335Z,13.68
2018-05-12T08:17:49.869Z,13.07
2018-05-12T08:20:17.452Z,13.68
2018-05-12T08:22:45.091Z,13.45
2018-05-12T08:25:12.657Z,13.40
2018-05-12T08:27:40.205Z,13.35
2018-05-12T08:30:07.713Z,13.48
2018-05-12T08:32:35.211Z,12.82
2018-05-12T08:35:02.764Z,13.27
2018-05-12T08:37:30.303Z,13.95
2018-05-12T08:39:57.867Z,13.68
2018-05-12T08:42:25.452Z,13.88
2018-05-12T08:44:52.989Z,13.10
2018-05-12T08:47:20.514Z,13.25
2018-05-12T08:49:48.186Z,13.43
2018-05-12T08:52:15.726Z,10.90
2018-05-12T08:54:43.283Z,11.98
2018-05-12T08:57:10.834Z,12.15
2018-05-12T08:59:38.388Z,12.27
2018-05-12T09:02:05.911Z,13.07
2018-05-12T09:04:33.491Z,12.73
2018-05-12T09:07:01.038Z,12.00
2018-05-12T09:09:28.585Z,11.40
2018-05-12T09:11:56.145Z,10.40
2018-05-12T09:14:23.794Z,13.38
2018-05-12T09:16:52.298Z,12.55
2018-05-12T09:19:20.097Z,12.80
2018-05-12T09:21:47.614Z,10.32
2018-05-12T09:24:15.159Z,11.82
2018-05-12T09:26:42.725Z,12.82
2018-05-12T09:29:10.260Z,11.85
2018-05-12T09:31:37.802Z,12.30
2018-05-12T09:34:05.367Z,11.30
2018-05-12T09:36:32.904Z,10.88
2018-05-12T09:39:00.441Z,10.80
2018-05-12T09:41:30.587Z,11.05
2018-05-12T09:43:58.707Z,10.70
2018-05-12T09:46:26.377Z,10.02
2018-05-12T09:48:54.014Z,9.13
2018-05-12T09:51:21.577Z,12.18
2018-05-12T09:53:49.246Z,14.20
2018-05-12T09:56:16.802Z,12.95
2018-05-12T09:58:44.344Z,13.68
2018-05-12T10:01:11.935Z,12.37
2018-05-12T10:03:39.641Z,12.87
2018-05-12T10:06:07.291Z,13.70
2018-05-12T10:08:34.828Z,13.83
2018-05-12T10:11:02.465Z,13.20
2018-05-12T10:13:30.055Z,11.80
2018-05-12T10:15:57.574Z,9.43
2018-05-12T10:18:25.143Z,12.27
2018-05-12T10:20:52.646Z,9.83
2018-05-12T10:23:20.166Z,10.47
2018-05-12T10:25:47.707Z,11.27
2018-05-12T10:28:15.284Z,10.03
2018-05-12T10:30:42.803Z,8.27
2018-05-12T10:33:10.340Z,10.37
2018-05-12T10:35:37.878Z,12.40
2018-05-12T10:38:05.435Z,8.00
2018-05-12T10:40:32.994Z,11.23
2018-05-12T10:43:00.566Z,11.80
2018-05-12T10:45:28.223Z,10.03
2018-05-12T10:47:55.775Z,10.10
2018-05-12T10:50:23.357Z,10.27
2018-05-12T10:52:50.862Z,8.40
2018-05-12T10:55:18.430Z,8.00
2018-05-12T10:57:46.014Z,9.50
2018-05-12T11:00:13.556Z,8.33
2018-05-12T11:02:41.176Z,7.87
2018-05-12T11:05:08.746Z,6.73
2018-05-12T11:07:36.267Z,8.10
2018-05-12T11:10:03.908Z,8.27
2018-05-12T11:12:31.474Z,7.93
2018-05-12T11:14:59.026Z,7.63
2018-05-12T11:17:26.586Z,8.00
2018-05-12T11:19:54.162Z,7.20
2018-05-12T11:22:21.702Z,8.30
2018-05-12T11:24:50.094Z,8.40
2018-05-12T11:27:17.613Z,8.37
2018-05-12T11:29:45.133Z,9.73
2018-05-12T11:32:12.808Z,8.73
2018-05-12T11:34:40.425Z,8.47
2018-05-12T11:37:07.995Z,9.30
2018-05-12T11:39:35.652Z,8.60
2018-05-12T11:42:03.214Z,8.30
2018-05-12T11:44:30.872Z,9.20
2018-05-12T11:46:58.503Z,9.47
2018-05-12T11:49:26.096Z,8.97
2018-05-12T11:51:53.662Z,9.90
2018-05-12T11:54:21.206Z,9.87
2018-05-12T11:56:48.753Z,10.17
2018-05-12T11:59:16.282Z,9.87
2018-05-12T12:01:43.922Z,7.27
2018-05-12T12:04:11.457Z,8.70
2018-05-12T12:06:39.038Z,9.30
2018-05-12T12:09:06.606Z,9.60
2018-05-12T12:11:34.170Z,7.87
2018-05-12T12:14:02.150Z,10.77
2018-05-12T12:16:30.005Z,9.20
2018-05-12T12:18:57.537Z,8.67
2018-05-12T12:21:25.070Z,9.13
2018-05-12T12:23:52.650Z,8.87
2018-05-12T12:26:20.354Z,8.20
2018-05-12T12:28:48.700Z,8.33
2018-05-12T12:31:16.250Z,8.30
2018-05-12T12:33:43.741Z,8.50
2018-05-12T12:36:11.285Z,8.90
2018-05-12T12:41:04.657Z,9.43
2018-05-12T12:43:32.212Z,8.10
2018-05-12T12:45:59.729Z,7.93
2018-05-12T12:48:27.320Z,7.20
2018-05-12T12:50:54.871Z,7.67
2018-05-12T12:53:22.412Z,8.10
2018-05-12T12:55:49.979Z,6.50
2018-05-12T12:58:17.551Z,8.30
2018-05-12T13:00:45.158Z,8.87
2018-05-12T13:03:12.751Z,7.27
2018-05-12T13:05:40.274Z,8.13
2018-05-12T13:08:07.779Z,7.23
2018-05-12T13:10:35.351Z,7.30
2018-05-12T13:13:02.877Z,6.90
2018-05-12T13:15:30.464Z,6.63
2018-05-12T13:17:58.030Z,6.47
2018-05-12T13:20:25.558Z,6.63
2018-05-12T13:22:53.095Z,6.77
2018-05-12T13:25:20.647Z,5.97
2018-05-12T13:27:48.174Z,6.63
2018-05-12T13:30:15.699Z,5.90
2018-05-12T13:32:43.217Z,6.50
2018-05-12T13:35:10.711Z,6.10
2018-05-12T13:37:38.241Z,5.17
2018-05-12T13:40:05.757Z,5.30
2018-05-12T13:42:33.237Z,5.70
2018-05-12T13:45:00.726Z,4.97
2018-05-12T13:47:28.239Z,4.93
2018-05-12T13:49:55.721Z,4.73
2018-05-12T13:52:23.210Z,4.70
2018-05-12T13:54:50.734Z,4.80
2018-05-12T13:57:18.220Z,4.57
2018-05-12T13:59:45.707Z,4.47
2018-05-12T14:02:13.226Z,4.83
2018-05-12T14:04:40.713Z,5.27
2018-05-12T14:07:08.210Z,4.57
2018-05-12T14:09:36.692Z,4.23
2018-05-12T14:12:04.181Z,4.30
2018-05-12T14:14:31.670Z,4.00
2018-05-12T14:16:59.186Z,4.37
2018-05-12T14:19:26.687Z,4.37
2018-05-12T14:21:54.191Z,4.00
2018-05-12T14:24:21.730Z,3.23
2018-05-12T14:26:49.227Z,3.20
2018-05-12T14:29:16.719Z,3.43
2018-05-12T14:31:44.240Z,3.20
2018-05-12T14:34:11.724Z,3.10
2018-05-12T14:36:39.214Z,3.83
2018-05-12T14:39:06.731Z,4.00
2018-05-12T14:41:34.217Z,3.53
2018-05-12T14:44:01.705Z,3.20
2018-05-12T14:46:29.302Z,3.30
2018-05-12T14:48:56.729Z,3.17
2018-05-12T14:51:24.214Z,2.93
2018-05-12T14:53:51.730Z,3.50
2018-05-12T14:56:19.213Z,3.27
2018-05-12T14:58:46.693Z,3.30
2018-05-12T15:01:14.207Z,3.20
2018-05-12T15:03:41.709Z,3.07
2018-05-12T15:06:09.257Z,3.77
2018-05-12T15:08:36.775Z,3.73
2018-05-12T15:11:04.261Z,3.40
2018-05-12T15:13:31.757Z,3.60
2018-05-12T15:15:59.274Z,3.47
2018-05-12T15:18:26.770Z,3.43
2018-05-12T15:20:54.287Z,3.10
2018-05-12T15:23:21.798Z,3.33
2018-05-12T15:25:49.285Z,3.60
2018-05-12T15:28:16.774Z,3.53
2018-05-12T15:30:44.290Z,3.80
2018-05-12T15:33:11.778Z,2.90
2018-05-12T15:35:39.266Z,3.63
2018-05-12T15:38:06.782Z,3.57
2018-05-12T15:40:34.275Z,3.47
2018-05-12T15:43:01.776Z,3.60
2018-05-12T15:45:29.291Z,3.73
2018-05-12T15:47:56.776Z,3.57
2018-05-12T15:50:24.266Z,3.40
2018-05-12T15:52:51.786Z,4.17
2018-05-12T15:55:19.265Z,3.50
2018-05-12T15:57:46.758Z,3.80
2018-05-12T16:00:14.275Z,3.13
2018-05-12T16:02:41.771Z,3.50
2018-05-12T16:05:09.309Z,3.00
2018-05-12T16:07:36.827Z,3.50
2018-05-12T16:10:04.317Z,3.30
2018-05-12T16:12:31.801Z,3.00
2018-05-12T16:14:59.314Z,3.23
2018-05-12T16:17:26.793Z,3.53
2018-05-12T16:19:54.278Z,3.47
2018-05-12T16:22:21.795Z,3.70
2018-05-12T16:24:49.284Z,3.70
2018-05-12T16:27:16.774Z,3.40
2018-05-12T16:29:44.295Z,3.67
2018-05-12T16:32:11.782Z,3.33
2018-05-12T16:34:39.275Z,3.60
2018-05-12T16:37:06.785Z,3.53
2018-05-12T16:39:34.351Z,3.20
2018-05-12T16:42:01.843Z,3.50
2018-05-12T16:44:29.396Z,4.00
2018-05-12T16:46:56.874Z,4.10
2018-05-12T16:49:24.356Z,4.73
2018-05-12T16:51:51.876Z,4.33
2018-05-12T16:54:19.386Z,4.60
2018-05-12T16:56:47.229Z,4.50
2018-05-12T16:59:14.771Z,4.87
2018-05-12T17:01:42.274Z,5.03
2018-05-12T17:04:09.787Z,5.27
2018-05-12T17:06:37.314Z,4.60
2018-05-12T17:09:05.755Z,4.60
2018-05-12T17:11:33.241Z,4.87
2018-05-12T17:14:00.760Z,3.90
2018-05-12T17:16:28.253Z,4.43
2018-05-12T17:18:55.747Z,4.13
2018-05-12T17:21:23.269Z,3.40
2018-05-12T17:23:50.762Z,4.00
2018-05-12T17:26:18.253Z,4.07
2018-05-12T17:28:45.785Z,4.20
2018-05-12T17:31:13.273Z,4.03
2018-05-12T17:33:40.767Z,4.10
2018-05-12T17:36:08.278Z,4.10
2018-05-12T17:38:35.780Z,3.87
2018-05-12T17:41:03.270Z,4.40
2018-05-12T17:43:30.799Z,4.40
2018-05-12T17:45:58.295Z,4.10
2018-05-12T17:48:25.787Z,4.17
2018-05-12T17:50:53.315Z,4.30
2018-05-12T17:53:20.819Z,4.97
2018-05-12T17:55:48.391Z,4.30
2018-05-12T17:58:15.844Z,4.50
2018-05-12T18:00:43.338Z,4.37
2018-05-12T18:03:10.830Z,4.27
2018-05-12T18:05:38.361Z,4.70
2018-05-12T18:08:05.860Z,4.87
2018-05-12T18:10:33.349Z,4.40
2018-05-12T18:13:00.867Z,4.83
2018-05-12T18:15:28.350Z,4.77
2018-05-12T18:17:55.849Z,4.30
2018-05-12T18:20:23.367Z,5.00
2018-05-12T18:22:50.922Z,4.70
2018-05-12T18:25:18.423Z,5.10
2018-05-12T18:27:45.943Z,5.00
2018-05-12T18:30:13.424Z,4.60
2018-05-12T18:32:40.913Z,4.60
2018-05-12T18:35:08.426Z,4.57
2018-05-12T18:37:35.918Z,5.40
2018-05-12T18:40:03.421Z,5.37
2018-05-12T18:42:30.952Z,4.83
2018-05-12T18:44:58.452Z,5.20
2018-05-12T18:47:25.941Z,5.53
2018-05-12T18:49:54.426Z,5.30
2018-05-12T18:52:22.058Z,5.20
2018-05-12T18:54:49.599Z,4.73
2018-05-12T18:57:17.175Z,5.13
2018-05-12T18:59:44.706Z,5.60
2018-05-12T19:02:12.289Z,5.97
2018-05-12T19:04:39.825Z,5.43
2018-05-12T19:07:07.388Z,6.00
2018-05-12T19:09:34.986Z,5.50
2018-05-12T19:12:02.550Z,6.80
2018-05-12T19:14:30.094Z,6.50
2018-05-12T19:16:57.674Z,6.10
2018-05-12T19:19:25.264Z,6.13
2018-05-12T19:21:52.777Z,6.10
2018-05-12T19:24:20.289Z,6.30
2018-05-12T19:26:47.842Z,5.87
2018-05-12T19:29:15.443Z,6.30
2018-05-12T19:31:42.994Z,6.43
2018-05-12T19:34:10.569Z,6.30
2018-05-12T19:36:38.099Z,6.70
2018-05-12T19:39:05.631Z,6.40
2018-05-12T19:41:33.178Z,6.47
2018-05-12T19:44:00.717Z,6.80
2018-05-12T19:46:28.221Z,7.40
2018-05-12T19:48:55.786Z,6.80
2018-05-12T19:51:23.337Z,7.67
2018-05-12T19:53:50.858Z,6.70
2018-05-12T19:56:18.429Z,7.20
2018-05-12T19:58:45.983Z,6.80
2018-05-12T20:01:13.621Z,6.53
2018-05-12T20:03:41.209Z,6.77
2018-05-12T20:06:08.764Z,6.70
2018-05-12T20:08:36.322Z,7.10
2018-05-12T20:11:03.892Z,7.33
2018-05-12T20:13:31.488Z,7.20
2018-05-12T20:15:59.110Z,7.47
2018-05-12T20:18:26.653Z,7.17
2018-05-12T20:20:54.514Z,7.27
2018-05-12T20:23:22.055Z,6.80
2018-05-12T20:25:49.938Z,7.70
2018-05-12T20:28:17.594Z,7.97
2018-05-12T20:30:45.412Z,7.50
2018-05-12T20:33:12.972Z,7.97
2018-05-12T20:35:40.504Z,8.30
2018-05-12T20:38:08.013Z,8.13
2018-05-12T20:40:35.590Z,7.60
2018-05-12T20:43:03.152Z,8.33
2018-05-12T20:45:30.710Z,7.00
2018-05-12T20:47:58.269Z,7.93
2018-05-12T20:50:25.801Z,7.57
2018-05-12T20:52:53.324Z,7.63
2018-05-12T20:55:20.840Z,7.07
2018-05-12T20:57:49.636Z,8.00
2018-05-12T21:00:17.207Z,7.23
2018-05-12T21:02:45.238Z,8.00
2018-05-12T21:05:12.742Z,7.00
2018-05-12T21:07:40.263Z,7.27
2018-05-12T21:10:07.822Z,7.23
2018-05-12T21:12:35.354Z,6.93
2018-05-12T21:15:02.952Z,6.93
2018-05-12T21:17:30.722Z,7.10
2018-05-12T21:19:58.239Z,7.00
2018-05-12T21:22:25.762Z,6.60
2018-05-12T21:24:53.289Z,6.40
2018-05-12T21:27:20.811Z,6.53
2018-05-12T21:29:48.356Z,6.83
2018-05-12T21:32:15.965Z,6.83
2018-05-12T21:34:43.492Z,6.90
2018-05-12T21:37:11.042Z,6.57
2018-05-12T21:39:38.678Z,6.80
2018-05-12T21:42:06.188Z,6.60
2018-05-12T21:44:33.719Z,7.17
2018-05-12T21:47:01.297Z,7.03
2018-05-12T21:49:28.796Z,7.07
2018-05-12T21:51:56.318Z,6.73
2018-05-12T21:54:23.845Z,6.93
2018-05-12T21:56:51.334Z,6.73
2018-05-12T21:59:18.858Z,7.30
2018-05-12T22:01:46.394Z,7.80
2018-05-12T22:04:13.910Z,7.57
2018-05-12T22:06:41.425Z,7.00
2018-05-12T22:09:08.986Z,7.17
2018-05-12T22:11:36.522Z,6.90
2018-05-12T22:14:04.067Z,7.50
2018-05-12T22:16:31.593Z,7.97
2018-05-12T22:18:59.098Z,7.17
2018-05-12T22:21:26.638Z,7.43
2018-05-12T22:23:54.206Z,7.00
2018-05-12T22:26:21.767Z,8.03
2018-05-12T22:28:49.314Z,7.00
2018-05-12T22:31:16.849Z,7.20
2018-05-12T22:33:44.359Z,7.77
2018-05-12T22:36:11.864Z,7.57
2018-05-12T22:38:39.448Z,6.83
2018-05-12T22:41:06.990Z,6.77
2018-05-12T22:43:34.493Z,7.93
2018-05-12T22:46:02.059Z,7.37
2018-05-12T22:48:29.579Z,7.13
2018-05-12T22:50:57.127Z,7.60
2018-05-12T22:53:24.688Z,7.33
2018-05-12T22:55:52.215Z,7.57
2018-05-12T22:58:20.371Z,7.87
2018-05-12T23:00:47.922Z,7.37
2018-05-12T23:03:15.470Z,8.33
2018-05-12T23:05:43.036Z,8.17
2018-05-12T23:08:10.612Z,7.73
2018-05-12T23:10:38.148Z,7.70
2018-05-12T23:13:05.685Z,7.83
2018-05-12T23:15:33.263Z,7.67
2018-05-12T23:18:00.801Z,8.30
2018-05-12T23:20:28.311Z,7.70
2018-05-12T23:22:55.858Z,8.27
2018-05-12T23:25:23.415Z,8.23
2018-05-12T23:27:50.936Z,8.63
2018-05-12T23:30:18.509Z,8.47
2018-05-12T23:32:46.055Z,8.07
2018-05-12T23:35:13.586Z,7.93
2018-05-12T23:37:41.150Z,8.50
2018-05-12T23:40:08.658Z,8.20
2018-05-12T23:42:36.180Z,9.13
2018-05-12T23:45:03.738Z,9.70
2018-05-12T23:47:31.259Z,9.50
2018-05-12T23:49:58.778Z,9.17
2018-05-12T23:52:26.299Z,8.27
2018-05-12T23:54:53.781Z,8.77
2018-05-12T23:57:21.299Z,9.37
2018-05-12T23:59:48.871Z,9.00
